createdAt,value
2023-12-21T00:00:27.126Z,0.53
2023-12-21T00:01:27.132Z,0.53
2023-12-21T00:02:27.028Z,0.52
2023-12-21T00:03:27.029Z,0.54
2023-12-21T00:56:27.273Z,0.54
2023-12-21T00:57:26.533Z,0.61
2023-12-21T00:58:26.590Z,0.83
2023-12-21T00:59:26.514Z,1.22
2023-12-21T01:00:26.506Z,1.87
2023-12-21T01:01:26.561Z,2.90
2023-12-21T01:02:26.480Z,2.38
2023-12-21T01:03:26.565Z,2.03
2023-12-21T01:04:26.510Z,1.71
2023-12-21T01:05:26.485Z,1.49
2023-12-21T01:06:26.448Z,1.33
2023-12-21T01:07:26.478Z,1.22
2023-12-21T01:08:26.460Z,1.11
2023-12-21T01:09:26.422Z,1.04
2023-12-21T01:10:26.456Z,0.98
2023-12-21T01:11:26.413Z,0.93
2023-12-21T01:12:26.425Z,0.86
2023-12-21T01:13:26.400Z,0.84
2023-12-21T01:14:26.380Z,0.79
2023-12-21T01:15:26.364Z,0.76
2023-12-21T01:16:26.374Z,0.76
2023-12-21T01:17:26.372Z,0.72
2023-12-21T01:18:26.559Z,0.70
2023-12-21T01:19:26.397Z,0.69
2023-12-21T01:20:26.322Z,0.67
2023-12-21T01:21:26.313Z,0.66
2023-12-21T01:22:26.337Z,0.65
2023-12-21T01:23:26.295Z,0.63
2023-12-21T01:24:26.295Z,0.62
2023-12-21T01:25:26.344Z,0.61
2023-12-21T01:26:26.264Z,0.60
2023-12-21T01:27:32.255Z,0.59
2023-12-21T01:28:26.332Z,0.59
2023-12-21T01:29:26.267Z,0.59
2023-12-21T01:30:26.246Z,0.58
2023-12-21T01:31:26.504Z,0.59
2023-12-21T01:32:26.409Z,0.56
2023-12-21T01:33:26.272Z,0.56
2023-12-21T01:34:26.248Z,0.57
2023-12-21T01:35:26.215Z,0.55
2023-12-21T01:36:28.330Z,0.54
2023-12-21T01:37:26.207Z,0.54
2023-12-21T01:38:26.158Z,0.54
2023-12-21T01:39:26.144Z,0.54
2023-12-21T01:40:26.153Z,0.54
2023-12-21T01:41:26.134Z,0.54
2023-12-21T01:42:26.119Z,0.54
2023-12-21T01:43:26.900Z,0.53
2023-12-21T01:44:28.196Z,0.53
2023-12-21T01:45:26.095Z,0.53
2023-12-21T01:46:26.132Z,0.52
2023-12-21T01:47:26.111Z,0.53
2023-12-21T01:48:26.205Z,0.52
2023-12-21T01:49:26.116Z,0.52
2023-12-21T01:50:26.090Z,0.52
2023-12-21T01:51:26.055Z,0.52
2023-12-21T01:52:26.059Z,0.51
2023-12-21T01:53:26.031Z,0.51
2023-12-21T01:54:26.012Z,0.51
2023-12-21T01:55:26.020Z,0.50
2023-12-21T01:56:26.007Z,0.51
2023-12-21T01:57:25.986Z,0.52
2023-12-21T01:58:25.995Z,0.52
2023-12-21T01:59:25.976Z,0.51
2023-12-21T02:00:25.992Z,0.52
2023-12-21T02:01:26.018Z,0.52
2023-12-21T02:02:25.973Z,0.51
2023-12-21T02:03:25.962Z,0.52
2023-12-21T02:04:26.029Z,0.50
2023-12-21T02:05:25.919Z,0.52
2023-12-21T02:06:25.960Z,0.51
2023-12-21T02:07:25.966Z,0.52
2023-12-21T02:08:25.890Z,0.52
2023-12-21T02:09:25.892Z,0.52
2023-12-21T02:10:25.972Z,0.51
2023-12-21T02:11:25.863Z,0.52
2023-12-21T02:12:25.883Z,0.52
2023-12-21T02:13:25.899Z,0.51
2023-12-21T02:14:25.835Z,0.51
2023-12-21T02:15:25.835Z,0.51
2023-12-21T02:16:25.854Z,0.52
2023-12-21T02:17:25.850Z,0.52
2023-12-21T02:18:25.848Z,0.52
2023-12-21T02:19:25.895Z,0.51
2023-12-21T02:20:25.782Z,0.51
2023-12-21T02:21:25.784Z,0.51
2023-12-21T02:22:25.834Z,0.50
2023-12-21T02:23:25.750Z,0.52
2023-12-21T02:24:25.734Z,0.50
2023-12-21T02:25:25.780Z,0.51
2023-12-21T02:26:25.729Z,0.51
2023-12-21T02:27:25.712Z,0.50
2023-12-21T02:28:25.754Z,0.51
2023-12-21T02:29:25.707Z,0.51
2023-12-21T02:30:25.785Z,0.52
2023-12-21T02:31:25.720Z,0.51
2023-12-21T02:32:25.712Z,0.52
2023-12-21T02:33:25.710Z,0.51
2023-12-21T02:34:25.740Z,0.51
2023-12-21T02:35:25.644Z,0.52
2023-12-21T02:36:25.637Z,0.52
2023-12-21T02:37:25.705Z,0.52
2023-12-21T02:38:25.622Z,0.52
2023-12-21T02:39:25.595Z,0.52
2023-12-21T02:40:25.709Z,0.51
2023-12-21T02:41:25.618Z,0.52
2023-12-21T02:42:25.574Z,0.52
2023-12-21T02:43:25.586Z,0.51
2023-12-21T02:44:25.552Z,0.52
2023-12-21T02:45:25.550Z,0.52
2023-12-21T02:46:25.622Z,0.51
2023-12-21T02:47:25.558Z,0.53
2023-12-21T02:48:25.578Z,0.51
2023-12-21T02:49:25.712Z,0.52
2023-12-21T02:50:25.513Z,0.52
2023-12-21T02:51:25.543Z,0.51
2023-12-21T02:52:25.516Z,0.51
2023-12-21T02:53:25.471Z,0.51
2023-12-21T02:54:25.465Z,0.52
2023-12-21T02:55:25.484Z,0.53
2023-12-21T02:56:25.505Z,0.52
2023-12-21T02:57:25.479Z,0.52
2023-12-21T02:58:25.535Z,0.52
2023-12-21T02:59:25.417Z,0.52
2023-12-21T03:00:25.409Z,0.51
2023-12-21T03:01:25.526Z,0.51
2023-12-21T03:02:25.387Z,0.50
2023-12-21T03:03:25.401Z,0.52
2023-12-21T03:04:25.428Z,0.51
2023-12-21T03:05:25.436Z,0.50
2023-12-21T03:06:25.357Z,0.52
2023-12-21T03:07:25.548Z,0.52
2023-12-21T03:08:25.339Z,0.51
2023-12-21T03:09:25.327Z,0.51
2023-12-21T03:10:25.337Z,0.51
2023-12-21T03:11:25.330Z,0.52
2023-12-21T03:12:25.305Z,0.51
2023-12-21T03:13:25.387Z,0.51
2023-12-21T03:14:25.294Z,0.51
2023-12-21T03:15:25.290Z,0.51
2023-12-21T03:16:25.336Z,0.51
2023-12-21T03:17:25.308Z,0.50
2023-12-21T03:18:25.256Z,0.52
2023-12-21T03:19:25.415Z,0.52
2023-12-21T03:20:25.346Z,0.51
2023-12-21T03:21:25.263Z,0.52
2023-12-21T03:22:25.239Z,0.51
2023-12-21T03:23:25.229Z,0.52
2023-12-21T03:24:25.194Z,0.52
2023-12-21T03:25:25.244Z,0.51
2023-12-21T03:26:25.182Z,0.52
2023-12-21T03:27:25.167Z,0.52
2023-12-21T03:28:25.219Z,0.51
2023-12-21T03:29:25.160Z,0.51
2023-12-21T03:30:25.225Z,0.52
2023-12-21T03:31:25.147Z,0.52
2023-12-21T03:32:25.120Z,0.52
2023-12-21T03:33:25.168Z,0.51
2023-12-21T03:34:25.209Z,0.52
2023-12-21T03:35:25.095Z,0.51
2023-12-21T03:36:25.113Z,0.51
2023-12-21T03:37:25.101Z,0.52
2023-12-21T03:38:25.069Z,0.51
2023-12-21T03:39:25.052Z,0.52
2023-12-21T03:40:25.109Z,0.52
2023-12-21T03:41:25.049Z,0.50
2023-12-21T03:42:25.038Z,0.52
2023-12-21T03:43:25.058Z,0.51
2023-12-21T03:44:25.022Z,0.52
2023-12-21T03:45:25.011Z,0.52
2023-12-21T03:46:25.025Z,0.52
2023-12-21T03:47:24.998Z,0.52
2023-12-21T03:48:25.027Z,0.51
2023-12-21T03:49:25.005Z,0.52
2023-12-21T03:50:24.965Z,0.53
2023-12-21T03:51:25.020Z,0.52
2023-12-21T03:52:25.045Z,0.52
2023-12-21T03:53:24.925Z,0.51
2023-12-21T03:54:24.921Z,0.52
2023-12-21T03:55:24.974Z,0.53
2023-12-21T03:56:24.900Z,0.53
2023-12-21T03:57:24.895Z,0.53
2023-12-21T03:58:24.898Z,0.52
2023-12-21T03:59:24.897Z,0.52
2023-12-21T04:00:24.900Z,0.53
2023-12-21T04:01:24.916Z,0.52
2023-12-21T04:02:24.855Z,0.51
2023-12-21T04:03:24.853Z,0.52
2023-12-21T04:04:28.267Z,0.52
2023-12-21T04:05:24.858Z,0.52
2023-12-21T04:06:24.828Z,0.52
2023-12-21T04:07:24.853Z,0.52
2023-12-21T04:08:24.850Z,0.52
2023-12-21T04:09:24.776Z,0.52
2023-12-21T04:10:24.804Z,0.52
2023-12-21T04:11:24.764Z,0.52
2023-12-21T04:12:24.753Z,0.52
2023-12-21T04:13:24.783Z,0.52
2023-12-21T04:14:24.766Z,0.51
2023-12-21T04:15:24.731Z,0.52
2023-12-21T04:16:24.756Z,0.52
2023-12-21T04:17:24.721Z,0.51
2023-12-21T04:18:24.866Z,0.51
2023-12-21T04:19:24.760Z,0.52
2023-12-21T04:20:49.440Z,0.52
2023-12-21T04:21:24.678Z,0.52
2023-12-21T04:22:24.710Z,0.53
2023-12-21T04:23:24.652Z,0.54
2023-12-21T04:24:24.680Z,0.55
2023-12-21T04:25:24.723Z,0.54
2023-12-21T04:26:24.631Z,0.55
2023-12-21T04:27:24.624Z,0.55
2023-12-21T04:28:24.691Z,0.54
2023-12-21T04:29:24.597Z,0.54
2023-12-21T04:30:24.677Z,0.54
2023-12-21T04:31:24.659Z,0.53
2023-12-21T04:32:24.625Z,0.53
2023-12-21T04:33:24.768Z,0.53
2023-12-21T04:34:24.605Z,0.52
2023-12-21T04:35:24.545Z,0.52
2023-12-21T04:36:25.974Z,0.53
2023-12-21T04:37:24.806Z,0.53
2023-12-21T04:38:24.739Z,0.53
2023-12-21T04:39:24.762Z,0.53
2023-12-21T04:40:24.816Z,0.53
2023-12-21T04:41:24.708Z,0.52
2023-12-21T04:42:24.715Z,0.54
2023-12-21T04:43:24.772Z,0.52
2023-12-21T04:44:24.714Z,0.52
2023-12-21T04:45:24.774Z,0.53
2023-12-21T04:46:24.693Z,0.53
2023-12-21T04:47:24.675Z,0.53
2023-12-21T04:48:24.778Z,0.52
2023-12-21T04:49:24.748Z,0.53
2023-12-21T04:50:24.637Z,0.53
2023-12-21T04:51:24.628Z,0.53
2023-12-21T04:52:24.643Z,0.52
2023-12-21T04:53:24.605Z,0.53
2023-12-21T04:54:24.614Z,0.52
2023-12-21T04:55:24.659Z,0.52
2023-12-21T04:56:24.648Z,0.53
2023-12-21T04:57:24.573Z,0.53
2023-12-21T04:58:24.613Z,0.53
2023-12-21T04:59:24.552Z,0.51
2023-12-21T05:00:24.548Z,0.51
2023-12-21T05:01:24.649Z,0.52
2023-12-21T05:02:24.518Z,0.51
2023-12-21T05:03:24.541Z,0.53
2023-12-21T05:04:24.561Z,0.52
2023-12-21T05:05:24.515Z,0.51
2023-12-21T05:06:24.488Z,0.51
2023-12-21T05:07:24.520Z,0.52
2023-12-21T05:08:24.465Z,0.52
2023-12-21T05:09:24.460Z,0.52
2023-12-21T05:10:24.464Z,0.52
2023-12-21T05:11:24.445Z,0.52
2023-12-21T05:12:24.456Z,0.52
2023-12-21T05:13:24.460Z,0.52
2023-12-21T05:14:24.409Z,0.52
2023-12-21T05:15:24.403Z,0.53
2023-12-21T05:16:24.536Z,0.51
2023-12-21T05:17:24.393Z,0.52
2023-12-21T05:18:24.433Z,0.52
2023-12-21T05:19:24.424Z,0.51
2023-12-21T05:20:24.394Z,0.51
2023-12-21T05:21:24.348Z,0.51
2023-12-21T05:22:24.370Z,0.51
2023-12-21T05:23:24.329Z,0.51
2023-12-21T05:24:24.320Z,0.52
2023-12-21T05:25:24.443Z,0.50
2023-12-21T05:26:24.299Z,0.53
2023-12-21T05:27:24.293Z,0.52
2023-12-21T05:28:24.446Z,0.51
2023-12-21T05:29:24.279Z,0.53
2023-12-21T05:30:24.314Z,0.53
2023-12-21T05:31:24.335Z,0.53
2023-12-21T05:32:24.269Z,0.52
2023-12-21T05:33:24.320Z,0.51
2023-12-21T05:34:24.304Z,0.52
2023-12-21T05:35:24.307Z,0.52
2023-12-21T05:36:24.236Z,0.51
2023-12-21T05:37:24.238Z,0.52
2023-12-21T05:38:24.431Z,0.52
2023-12-21T05:39:24.250Z,0.52
2023-12-21T05:40:24.231Z,0.53
2023-12-21T05:41:24.206Z,0.52
2023-12-21T05:42:24.217Z,0.53
2023-12-21T05:43:24.177Z,0.52
2023-12-21T05:44:24.170Z,0.52
2023-12-21T05:45:24.127Z,0.53
2023-12-21T05:46:24.206Z,0.51
2023-12-21T05:47:24.110Z,0.51
2023-12-21T05:48:24.168Z,0.53
2023-12-21T05:49:24.179Z,0.52
2023-12-21T05:50:24.084Z,0.53
2023-12-21T05:51:24.094Z,0.53
2023-12-21T05:52:24.119Z,0.52
2023-12-21T05:53:24.054Z,0.53
2023-12-21T05:54:24.061Z,0.52
2023-12-21T05:55:24.073Z,0.52
2023-12-21T05:56:24.073Z,0.52
2023-12-21T05:57:24.025Z,0.52
2023-12-21T05:58:24.045Z,0.52
2023-12-21T05:59:23.996Z,0.51
2023-12-21T06:00:24.961Z,0.54
2023-12-21T06:01:24.077Z,0.53
2023-12-21T06:02:24.037Z,0.53
2023-12-21T06:03:23.977Z,0.53
2023-12-21T06:04:24.064Z,0.53
2023-12-21T06:05:23.956Z,0.52
2023-12-21T06:06:24.053Z,0.53
2023-12-21T06:07:23.941Z,0.51
2023-12-21T06:08:23.953Z,0.52
2023-12-21T06:09:23.944Z,0.53
2023-12-21T06:10:23.938Z,0.51
2023-12-21T06:11:23.921Z,0.52
2023-12-21T06:12:23.926Z,0.51
2023-12-21T06:13:23.937Z,0.53
2023-12-21T06:14:23.887Z,0.53
2023-12-21T06:15:23.861Z,0.52
2023-12-21T06:16:24.036Z,0.52
2023-12-21T06:17:23.866Z,0.52
2023-12-21T06:18:24.031Z,0.52
2023-12-21T06:19:23.902Z,0.51
2023-12-21T06:20:23.848Z,0.52
2023-12-21T06:21:23.798Z,0.52
2023-12-21T06:22:23.868Z,0.51
2023-12-21T06:23:24.496Z,0.52
2023-12-21T06:24:24.308Z,0.53
2023-12-21T06:25:24.386Z,0.52
2023-12-21T06:26:24.376Z,0.53
2023-12-21T06:27:23.760Z,0.52
2023-12-21T06:28:23.858Z,0.54
2023-12-21T06:29:23.723Z,0.54
2023-12-21T06:30:24.311Z,0.56
2023-12-21T06:31:23.993Z,0.55
2023-12-21T06:32:23.981Z,0.57
2023-12-21T06:33:23.787Z,0.57
2023-12-21T06:34:23.773Z,0.57
2023-12-21T06:35:23.702Z,0.59
2023-12-21T06:36:24.024Z,0.60
2023-12-21T06:37:23.705Z,0.61
2023-12-21T06:38:23.653Z,0.62
2023-12-21T06:39:23.644Z,0.62
2023-12-21T06:40:23.659Z,0.62
2023-12-21T06:41:23.683Z,0.79
2023-12-21T06:42:23.611Z,0.79
2023-12-21T06:43:24.333Z,0.80
2023-12-21T06:44:23.607Z,0.82
2023-12-21T06:45:23.959Z,0.81
2023-12-21T06:46:23.675Z,0.81
2023-12-21T06:47:23.589Z,0.86
2023-12-21T06:48:23.625Z,0.98
2023-12-21T06:49:24.620Z,0.97
2023-12-21T06:50:23.975Z,0.89
2023-12-21T06:51:23.731Z,0.82
2023-12-21T06:52:24.035Z,0.74
2023-12-21T06:53:23.514Z,0.72
2023-12-21T06:54:23.501Z,0.68
2023-12-21T06:55:23.551Z,0.71
2023-12-21T06:56:32.873Z,0.74
2023-12-21T06:57:23.982Z,0.74
2023-12-21T06:58:23.487Z,0.74
2023-12-21T06:59:23.488Z,0.75
2023-12-21T07:00:23.441Z,0.76
2023-12-21T07:01:23.456Z,0.77
2023-12-21T07:02:23.461Z,0.79
2023-12-21T07:03:23.477Z,0.82
2023-12-21T07:04:23.603Z,0.91
2023-12-21T07:05:23.434Z,0.95
2023-12-21T07:06:23.518Z,0.99
2023-12-21T07:07:24.045Z,1.05
2023-12-21T07:08:23.369Z,1.12
2023-12-21T07:09:23.363Z,1.14
2023-12-21T07:10:23.375Z,1.15
2023-12-21T07:11:23.584Z,1.13
2023-12-21T07:12:23.355Z,1.14
2023-12-21T07:13:23.341Z,1.15
2023-12-21T07:14:23.314Z,1.18
2023-12-21T07:15:23.325Z,1.23
2023-12-21T07:16:23.522Z,1.27
2023-12-21T07:17:23.502Z,1.31
2023-12-21T07:18:23.310Z,1.34
2023-12-21T07:19:23.297Z,1.41
2023-12-21T07:20:23.289Z,1.62
2023-12-21T07:21:23.252Z,4.60
2023-12-21T07:22:23.287Z,4.36
2023-12-21T07:23:23.451Z,4.53
2023-12-21T07:24:23.229Z,4.33
2023-12-21T07:25:23.224Z,4.17
2023-12-21T07:26:23.230Z,3.96
2023-12-21T07:27:23.197Z,3.80
2023-12-21T07:28:23.536Z,3.74
2023-12-21T07:29:23.318Z,3.86
2023-12-21T07:30:23.309Z,4.01
2023-12-21T07:31:23.209Z,4.12
2023-12-21T07:32:24.012Z,4.23
2023-12-21T07:33:23.216Z,4.40
2023-12-21T07:34:23.493Z,4.29
2023-12-21T07:35:23.519Z,4.31
2023-12-21T07:36:23.519Z,4.18
2023-12-21T07:37:23.142Z,3.86
2023-12-21T07:38:23.107Z,3.65
2023-12-21T07:39:23.091Z,3.35
2023-12-21T07:40:23.333Z,3.15
2023-12-21T07:41:23.552Z,2.99
2023-12-21T07:42:23.056Z,2.93
2023-12-21T07:43:23.094Z,2.94
2023-12-21T07:44:23.043Z,2.87
2023-12-21T07:45:23.056Z,2.87
2023-12-21T07:46:23.823Z,2.88
2023-12-21T07:47:23.019Z,2.94
2023-12-21T07:48:23.050Z,3.12
2023-12-21T07:49:23.512Z,3.31
2023-12-21T07:50:22.995Z,3.31
2023-12-21T07:51:23.514Z,3.34
2023-12-21T07:52:23.041Z,3.35
2023-12-21T07:53:22.970Z,3.32
2023-12-21T07:54:23.171Z,3.49
2023-12-21T07:55:23.011Z,3.55
2023-12-21T07:56:24.130Z,3.44
2023-12-21T07:57:24.187Z,3.59
2023-12-21T07:58:22.926Z,3.67
2023-12-21T07:59:22.933Z,4.05
2023-12-21T08:00:22.902Z,4.11
2023-12-21T08:01:23.068Z,4.12
2023-12-21T08:02:23.053Z,4.16
2023-12-21T08:03:22.868Z,4.20
2023-12-21T08:04:23.001Z,4.23
2023-12-21T08:05:22.926Z,4.34
2023-12-21T08:06:23.080Z,4.44
2023-12-21T08:07:22.891Z,4.64
2023-12-21T08:08:22.953Z,4.69
2023-12-21T08:09:22.822Z,4.80
2023-12-21T08:10:22.844Z,4.94
2023-12-21T08:11:22.805Z,5.04
2023-12-21T08:12:23.010Z,5.05
2023-12-21T08:13:22.809Z,5.19
2023-12-21T08:14:22.769Z,5.35
2023-12-21T08:15:22.998Z,5.51
2023-12-21T08:16:22.809Z,5.89
2023-12-21T08:17:23.043Z,6.22
2023-12-21T08:18:22.864Z,6.38
2023-12-21T08:19:22.805Z,6.66
2023-12-21T08:20:22.714Z,6.87
2023-12-21T08:21:22.706Z,7.08
2023-12-21T08:22:22.772Z,7.08
2023-12-21T08:23:23.023Z,7.30
2023-12-21T08:24:22.719Z,7.36
2023-12-21T08:25:22.692Z,7.64
2023-12-21T08:26:22.661Z,7.78
2023-12-21T08:27:23.009Z,7.66
2023-12-21T08:28:22.690Z,7.64
2023-12-21T08:29:22.680Z,7.71
2023-12-21T08:30:23.252Z,8.05
2023-12-21T08:31:22.720Z,8.44
2023-12-21T08:32:23.015Z,8.52
2023-12-21T08:33:22.656Z,8.23
2023-12-21T08:34:22.679Z,7.92
2023-12-21T08:35:22.611Z,7.75
2023-12-21T08:36:22.576Z,6.79
2023-12-21T08:37:23.050Z,5.71
2023-12-21T08:38:22.567Z,5.21
2023-12-21T08:39:22.544Z,4.81
2023-12-21T08:40:22.603Z,4.10
2023-12-21T08:41:29.918Z,3.70
2023-12-21T08:42:23.014Z,3.41
2023-12-21T08:43:22.525Z,3.00
2023-12-21T08:44:24.336Z,2.50
2023-12-21T08:45:22.501Z,2.09
2023-12-21T08:46:22.523Z,1.75
2023-12-21T08:47:22.612Z,1.51
2023-12-21T08:48:22.610Z,1.42
2023-12-21T08:49:22.645Z,1.32
2023-12-21T08:50:22.553Z,1.24
2023-12-21T08:51:22.427Z,1.19
2023-12-21T08:52:22.612Z,1.19
2023-12-21T08:53:22.422Z,1.21
2023-12-21T08:54:22.425Z,1.13
2023-12-21T08:55:22.456Z,1.17
2023-12-21T08:56:23.777Z,1.22
2023-12-21T08:57:22.514Z,1.20
2023-12-21T08:58:22.401Z,1.09
2023-12-21T08:59:22.570Z,0.99
2023-12-21T09:00:22.375Z,0.89
2023-12-21T09:01:22.434Z,0.87
2023-12-21T09:02:22.320Z,0.81
2023-12-21T09:03:22.340Z,0.81
2023-12-21T09:04:22.743Z,0.78
2023-12-21T09:05:22.334Z,0.78
2023-12-21T09:06:23.054Z,0.76
2023-12-21T09:07:22.316Z,0.77
2023-12-21T09:08:22.277Z,0.80
2023-12-21T09:09:22.271Z,0.81
2023-12-21T09:10:22.671Z,0.82
2023-12-21T09:11:22.253Z,0.84
2023-12-21T09:12:22.259Z,0.84
2023-12-21T09:13:22.621Z,0.86
2023-12-21T09:14:22.209Z,0.89
2023-12-21T09:15:22.250Z,0.90
2023-12-21T09:16:22.209Z,0.97
2023-12-21T09:17:22.596Z,0.97
2023-12-21T09:18:22.248Z,1.01
2023-12-21T09:19:22.239Z,1.02
2023-12-21T09:20:22.196Z,1.06
2023-12-21T09:21:22.517Z,1.09
2023-12-21T09:22:22.166Z,1.14
2023-12-21T09:23:22.526Z,1.16
2023-12-21T09:24:22.146Z,1.20
2023-12-21T09:25:22.168Z,1.24
2023-12-21T09:26:22.102Z,1.30
2023-12-21T09:27:22.552Z,1.34
2023-12-21T09:28:22.137Z,1.37
2023-12-21T09:29:22.076Z,1.52
2023-12-21T09:30:22.156Z,1.73
2023-12-21T09:31:22.096Z,1.87
2023-12-21T09:32:22.529Z,1.88
2023-12-21T09:33:22.121Z,1.92
2023-12-21T09:34:22.115Z,1.94
2023-12-21T09:35:22.095Z,1.96
2023-12-21T09:36:22.035Z,2.01
2023-12-21T09:37:22.056Z,2.00
2023-12-21T09:38:22.567Z,1.99
2023-12-21T09:39:22.001Z,2.00
2023-12-21T09:40:21.995Z,2.00
2023-12-21T09:41:22.040Z,2.02
2023-12-21T09:42:21.953Z,2.05
2023-12-21T09:43:22.288Z,2.12
2023-12-21T09:44:21.976Z,2.16
2023-12-21T09:45:21.949Z,2.22
2023-12-21T09:46:22.551Z,2.28
2023-12-21T09:47:21.923Z,2.29
2023-12-21T09:48:22.119Z,2.40
2023-12-21T09:49:21.982Z,2.43
2023-12-21T09:50:21.893Z,2.49
2023-12-21T09:51:21.895Z,2.62
2023-12-21T09:52:21.928Z,2.70
2023-12-21T09:53:21.880Z,2.73
2023-12-21T09:54:22.036Z,2.82
2023-12-21T09:55:21.907Z,2.95
2023-12-21T09:56:21.833Z,3.01
2023-12-21T09:57:22.032Z,3.02
2023-12-21T09:58:21.864Z,3.07
2023-12-21T09:59:21.817Z,3.15
2023-12-21T10:00:21.818Z,3.52
2023-12-21T10:01:22.126Z,3.50
2023-12-21T10:02:21.805Z,3.59
2023-12-21T10:03:21.848Z,3.64
2023-12-21T10:04:21.817Z,3.64
2023-12-21T10:05:21.751Z,3.72
2023-12-21T10:06:21.772Z,3.76
2023-12-21T10:07:22.069Z,3.85
2023-12-21T10:08:21.730Z,4.02
2023-12-21T10:09:21.708Z,3.96
2023-12-21T10:10:21.880Z,3.99
2023-12-21T10:11:21.694Z,4.05
2023-12-21T10:12:22.033Z,4.15
2023-12-21T10:13:21.709Z,4.24
2023-12-21T10:14:22.611Z,4.12
2023-12-21T10:15:21.643Z,4.17
2023-12-21T10:16:21.706Z,4.23
2023-12-21T10:17:21.635Z,4.09
2023-12-21T10:18:21.729Z,3.78
2023-12-21T10:19:21.701Z,3.56
2023-12-21T10:20:21.684Z,3.29
2023-12-21T10:21:21.591Z,3.14
2023-12-21T10:22:21.607Z,3.02
2023-12-21T10:23:21.585Z,2.94
2023-12-21T10:24:21.629Z,2.76
2023-12-21T10:25:21.608Z,2.60
2023-12-21T10:26:21.562Z,2.52
2023-12-21T10:27:22.049Z,2.43
2023-12-21T10:28:21.623Z,2.39
2023-12-21T10:29:21.832Z,2.17
2023-12-21T10:30:21.523Z,2.11
2023-12-21T10:31:21.577Z,2.25
2023-12-21T10:32:21.588Z,2.24
2023-12-21T10:33:21.523Z,2.15
2023-12-21T10:34:21.646Z,2.02
2023-12-21T10:35:21.538Z,1.92
2023-12-21T10:36:21.491Z,1.69
2023-12-21T10:37:21.649Z,1.52
2023-12-21T10:38:21.441Z,1.35
2023-12-21T10:39:21.436Z,1.17
2023-12-21T10:40:21.515Z,1.08
2023-12-21T10:41:21.417Z,0.94
2023-12-21T10:42:21.420Z,0.87
2023-12-21T10:43:21.419Z,0.80
2023-12-21T10:44:21.401Z,0.70
2023-12-21T10:45:30.332Z,0.67
2023-12-21T10:46:21.413Z,0.65
2023-12-21T10:47:21.783Z,0.59
2023-12-21T10:48:21.753Z,0.54
2023-12-21T10:49:21.442Z,0.50
2023-12-21T10:50:21.579Z,0.47
2023-12-21T10:51:21.329Z,0.46
2023-12-21T10:52:21.346Z,0.50
2023-12-21T10:53:21.301Z,0.50
2023-12-21T10:54:21.296Z,0.50
2023-12-21T10:55:21.328Z,0.50
2023-12-21T10:56:21.690Z,0.51
2023-12-21T10:57:21.276Z,0.51
2023-12-21T10:58:21.308Z,0.50
2023-12-21T10:59:21.519Z,0.51
2023-12-21T11:00:21.235Z,0.51
2023-12-21T11:01:21.284Z,0.51
2023-12-21T11:02:21.585Z,0.52
2023-12-21T11:03:21.553Z,0.52
2023-12-21T11:04:21.311Z,0.51
2023-12-21T11:05:21.298Z,0.58
2023-12-21T11:06:21.342Z,0.70
2023-12-21T11:07:21.562Z,0.73
2023-12-21T11:08:21.160Z,0.79
2023-12-21T11:09:21.149Z,0.86
2023-12-21T11:10:21.182Z,0.91
2023-12-21T11:11:21.127Z,0.94
2023-12-21T11:12:21.123Z,0.95
2023-12-21T11:13:21.164Z,0.95
2023-12-21T11:14:21.098Z,0.95
2023-12-21T11:15:21.149Z,0.95
2023-12-21T11:16:21.136Z,0.98
2023-12-21T11:17:21.080Z,0.98
2023-12-21T11:18:51.584Z,0.96
2023-12-21T11:19:21.144Z,0.96
2023-12-21T11:20:22.309Z,0.98
2023-12-21T11:21:21.087Z,1.01
2023-12-21T11:22:21.138Z,1.04
2023-12-21T11:23:21.018Z,1.07
2023-12-21T11:24:21.017Z,1.09
2023-12-21T11:25:21.023Z,1.12
2023-12-21T11:26:21.345Z,1.10
2023-12-21T11:27:21.098Z,1.11
2023-12-21T11:28:21.178Z,1.10
2023-12-21T11:29:20.957Z,1.11
2023-12-21T11:30:20.946Z,1.11
2023-12-21T11:31:21.029Z,1.11
2023-12-21T11:32:20.949Z,1.12
2023-12-21T11:33:21.006Z,1.13
2023-12-21T11:34:20.927Z,1.11
2023-12-21T11:35:20.892Z,1.12
2023-12-21T11:36:20.912Z,1.13
2023-12-21T11:37:20.934Z,1.14
2023-12-21T11:38:20.867Z,1.13
2023-12-21T11:39:20.853Z,1.14
2023-12-21T11:40:20.878Z,1.12
2023-12-21T11:41:42.378Z,1.13
2023-12-21T11:42:20.826Z,1.13
2023-12-21T11:43:20.847Z,1.15
2023-12-21T11:44:20.807Z,1.16
2023-12-21T11:45:20.794Z,1.18
2023-12-21T11:46:21.631Z,1.17
2023-12-21T11:47:21.126Z,1.18
2023-12-21T11:48:20.974Z,1.14
2023-12-21T11:49:20.877Z,1.15
2023-12-21T11:50:20.834Z,1.14
2023-12-21T11:51:20.758Z,1.09
2023-12-21T11:52:20.802Z,1.09
2023-12-21T11:54:19.726Z,1.07
2023-12-21T11:55:20.710Z,1.03
2023-12-21T11:56:21.119Z,1.07
2023-12-21T11:57:20.683Z,1.07
2023-12-21T11:58:21.300Z,1.05
2023-12-21T11:59:21.189Z,1.06
2023-12-21T12:00:20.681Z,1.06
2023-12-21T12:01:20.682Z,1.06
2023-12-21T12:02:20.710Z,1.05
2023-12-21T12:03:20.692Z,1.04
2023-12-21T12:04:20.663Z,1.01
2023-12-21T12:05:20.621Z,1.03
2023-12-21T12:06:20.602Z,1.02
2023-12-21T12:07:20.656Z,1.01
2023-12-21T12:08:20.647Z,0.99
2023-12-21T12:09:21.017Z,0.97
2023-12-21T12:10:20.751Z,0.95
2023-12-21T12:11:20.572Z,0.92
2023-12-21T12:12:20.545Z,0.94
2023-12-21T12:13:20.748Z,0.94
2023-12-21T12:14:20.531Z,0.96
2023-12-21T12:15:20.523Z,0.93
2023-12-21T12:16:20.586Z,0.97
2023-12-21T12:17:20.541Z,0.96
2023-12-21T12:18:20.616Z,0.97
2023-12-21T12:19:20.844Z,0.96
2023-12-21T12:20:20.615Z,0.97
2023-12-21T12:21:20.465Z,1.00
2023-12-21T12:22:20.676Z,0.96
2023-12-21T12:23:20.458Z,1.00
2023-12-21T12:24:20.478Z,0.97
2023-12-21T12:25:20.544Z,1.00
2023-12-21T12:26:20.440Z,0.98
2023-12-21T12:27:20.406Z,0.99
2023-12-21T12:28:20.446Z,0.98
2023-12-21T12:29:20.391Z,0.99
2023-12-21T12:30:20.400Z,0.99
2023-12-21T12:31:20.443Z,0.98
2023-12-21T12:32:20.370Z,0.99
2023-12-21T12:33:20.403Z,0.97
2023-12-21T12:34:20.657Z,0.99
2023-12-21T12:35:20.414Z,0.99
2023-12-21T12:36:20.809Z,0.98
2023-12-21T12:37:20.444Z,0.98
2023-12-21T12:38:20.323Z,0.97
2023-12-21T12:39:20.308Z,0.98
2023-12-21T12:40:21.168Z,0.99
2023-12-21T12:41:20.284Z,0.98
2023-12-21T12:42:20.273Z,0.99
2023-12-21T12:43:20.279Z,0.97
2023-12-21T12:44:24.578Z,0.98
2023-12-21T12:45:20.339Z,0.98
2023-12-21T12:46:21.206Z,0.98
2023-12-21T12:47:20.241Z,0.99
2023-12-21T12:48:20.300Z,0.99
2023-12-21T12:49:20.273Z,1.00
2023-12-21T12:50:21.168Z,0.97
2023-12-21T12:51:20.196Z,0.98
2023-12-21T12:52:20.202Z,0.98
2023-12-21T12:53:20.186Z,1.00
2023-12-21T12:54:20.179Z,1.00
2023-12-21T12:55:20.589Z,0.97
2023-12-21T12:56:20.189Z,0.98
2023-12-21T12:57:20.139Z,0.97
2023-12-21T12:58:20.228Z,0.96
2023-12-21T12:59:20.181Z,0.96
2023-12-21T13:00:20.165Z,0.98
2023-12-21T13:01:21.382Z,0.95
2023-12-21T13:02:20.148Z,0.98
2023-12-21T13:03:20.218Z,0.99
2023-12-21T13:04:20.192Z,0.99
2023-12-21T13:05:20.423Z,0.97
2023-12-21T13:06:20.309Z,0.98
2023-12-21T13:07:20.887Z,0.98
2023-12-21T13:08:20.056Z,0.98
2023-12-21T13:09:20.028Z,0.97
2023-12-21T13:10:19.060Z,0.96
2023-12-21T13:11:20.118Z,0.96
2023-12-21T13:12:20.073Z,0.98
2023-12-21T13:13:20.122Z,0.95
2023-12-21T13:14:19.983Z,0.97
2023-12-21T13:15:19.991Z,0.94
2023-12-21T13:16:20.356Z,0.96
2023-12-21T13:17:19.959Z,0.97
2023-12-21T13:18:20.007Z,0.95
2023-12-21T13:19:21.250Z,0.96
2023-12-21T13:20:19.959Z,0.96
2023-12-21T13:21:19.934Z,0.96
2023-12-21T13:22:23.202Z,0.96
2023-12-21T13:23:19.910Z,0.96
2023-12-21T13:24:19.897Z,0.96
2023-12-21T13:25:20.969Z,0.96
2023-12-21T13:26:20.038Z,0.96
2023-12-21T13:27:19.931Z,0.96
2023-12-21T13:28:20.301Z,0.95
2023-12-21T13:29:19.911Z,0.95
2023-12-21T13:30:19.847Z,0.96
2023-12-21T13:31:19.859Z,0.95
2023-12-21T13:32:19.869Z,0.94
2023-12-21T13:33:19.980Z,0.96
2023-12-21T13:34:19.835Z,0.93
2023-12-21T13:35:19.796Z,0.93
2023-12-21T13:36:19.780Z,0.94
2023-12-21T13:37:19.848Z,0.94
2023-12-21T13:38:19.775Z,0.94
2023-12-21T13:39:19.762Z,0.94
2023-12-21T13:40:19.806Z,0.93
2023-12-21T13:41:19.735Z,0.91
2023-12-21T13:42:19.757Z,0.91
2023-12-21T13:43:19.743Z,0.91
2023-12-21T13:44:26.671Z,0.92
2023-12-21T13:45:19.712Z,0.92
2023-12-21T13:46:19.744Z,0.92
2023-12-21T13:47:19.698Z,0.93
2023-12-21T13:48:20.662Z,0.94
2023-12-21T13:49:19.704Z,0.92
2023-12-21T13:50:19.751Z,0.93
2023-12-21T13:51:19.657Z,0.93
2023-12-21T13:52:19.705Z,0.93
2023-12-21T13:53:19.632Z,0.93
2023-12-21T13:54:19.626Z,0.94
2023-12-21T13:55:19.664Z,0.91
2023-12-21T13:56:19.605Z,0.92
2023-12-21T13:57:19.616Z,0.92
2023-12-21T13:58:19.608Z,0.92
2023-12-21T13:59:19.577Z,0.92
2023-12-21T14:00:19.598Z,0.92
2023-12-21T14:01:19.626Z,0.90
2023-12-21T14:02:19.623Z,0.91
2023-12-21T14:03:19.577Z,0.91
2023-12-21T14:04:19.614Z,0.91
2023-12-21T14:05:19.634Z,0.91
2023-12-21T14:06:19.659Z,0.91
2023-12-21T14:07:19.578Z,0.91
2023-12-21T14:08:19.496Z,0.89
2023-12-21T14:09:19.539Z,0.89
2023-12-21T14:10:19.587Z,0.89
2023-12-21T14:11:19.466Z,0.91